Time;durP1;ratioP1;P1;durP2;ratioP2;P2;SDS_P1;SDS_P2;PMS_P1;PMS_P2;Temp;Humidity;BMP_temperature;BMP_pressure;BME280_temperature;BME280_humidity;BME280_pressure;Samples;Min_cycle;Max_cycle;Signal;HPM_P1;HPM_P2
2022/11/28 00:01:55;;;;;;;9.13;7.68;;;6.40;99.90;;;;;;4822929;29;20053;-86
2022/11/28 00:04:20;;;;;;;9.93;8.25;;;6.40;99.90;;;;;;4800094;29;20038;-86
2022/11/28 00:07:00;;;;;;;9.90;7.43;;;6.40;99.90;;;;;;4802667;29;20048;-86
2022/11/28 00:09:26;;;;;;;9.75;8.30;;;6.40;99.90;;;;;;4802256;29;20449;-86
2022/11/28 00:11:54;;;;;;;9.45;7.78;;;6.40;99.90;;;;;;4815699;29;20085;-86
2022/11/28 00:14:20;;;;;;;8.93;7.35;;;6.30;99.90;;;;;;4800706;29;20073;-86
2022/11/28 00:16:58;;;;;;;11.80;7.53;;;6.40;99.90;;;;;;4814269;29;20424;-86
2022/11/28 00:19:24;;;;;;;9.25;7.45;;;6.40;99.90;;;;;;4821037;29;20080;-85
2022/11/28 00:21:49;;;;;;;9.25;7.28;;;6.30;99.90;;;;;;4802245;29;20095;-86
2022/11/28 00:24:15;;;;;;;8.35;7.50;;;6.40;99.90;;;;;;4819132;29;20094;-86
2022/11/28 00:26:53;;;;;;;11.13;7.63;;;6.40;99.90;;;;;;4821995;29;20054;-86
2022/11/28 00:29:18;;;;;;;8.25;7.22;;;6.40;99.90;;;;;;4824049;29;20458;-86
2022/11/28 00:31:44;;;;;;;8.38;6.68;;;6.40;99.90;;;;;;4820273;29;20056;-85
2022/11/28 00:34:11;;;;;;;9.45;6.50;;;6.40;99.90;;;;;;4802357;29;20045;-87
2022/11/28 00:36:36;;;;;;;10.75;7.22;;;6.40;99.90;;;;;;4818405;29;20045;-86
2022/11/28 00:39:18;;;;;;;8.40;6.80;;;6.40;99.90;;;;;;4799237;29;20046;-85
2022/11/28 00:41:44;;;;;;;11.68;7.80;;;6.50;99.90;;;;;;4823608;29;20045;-86
2022/11/28 00:44:10;;;;;;;9.75;7.07;;;6.40;99.90;;;;;;4822688;29;20049;-86
2022/11/28 00:46:54;;;;;;;7.55;5.82;;;6.50;99.90;;;;;;4802049;29;20072;-86
2022/11/28 00:49:20;;;;;;;9.82;8.00;;;6.50;99.90;;;;;;4821138;29;20037;-86
2022/11/28 00:51:46;;;;;;;7.18;6.28;;;6.40;99.90;;;;;;4834280;29;20061;-86
2022/11/28 00:54:11;;;;;;;12.27;7.00;;;6.50;99.90;;;;;;4802609;29;20516;-87
2022/11/28 00:56:49;;;;;;;9.18;6.70;;;6.50;99.90;;;;;;4824654;29;20788;-86
2022/11/28 00:59:15;;;;;;;6.78;5.88;;;6.60;99.90;;;;;;4824550;29;20057;-86
2022/11/28 01:01:43;;;;;;;9.35;6.80;;;6.60;99.90;;;;;;4824131;29;20038;-86
2022/11/28 01:04:13;;;;;;;8.65;7.00;;;6.60;99.90;;;;;;4820709;29;20056;-86
2022/11/28 01:06:48;;;;;;;7.28;5.90;;;6.60;99.90;;;;;;4819519;29;20665;-86
2022/11/28 01:09:17;;;;;;;9.15;7.07;;;6.60;99.90;;;;;;4837222;29;20061;-85
2022/11/28 01:11:44;;;;;;;7.32;6.00;;;6.60;99.90;;;;;;4822128;29;20056;-86
2022/11/28 01:14:11;;;;;;;6.05;5.47;;;6.70;99.90;;;;;;4800196;29;20056;-85
2022/11/28 01:16:46;;;;;;;8.57;6.40;;;6.70;99.90;;;;;;4822321;29;20046;-86
2022/11/28 01:19:12;;;;;;;8.32;6.40;;;6.60;99.90;;;;;;4822770;29;20141;-86
2022/11/28 01:21:38;;;;;;;11.27;6.13;;;6.70;99.90;;;;;;4824837;29;20042;-86
2022/11/28 01:24:04;;;;;;;10.95;5.78;;;6.70;99.90;;;;;;4839148;29;20379;-86
2022/11/28 01:26:42;;;;;;;9.90;6.25;;;6.80;99.90;;;;;;4820947;29;20107;-86
2022/11/28 01:29:08;;;;;;;12.95;7.22;;;6.70;99.90;;;;;;4825429;29;20714;-86
2022/11/28 01:31:34;;;;;;;8.68;5.60;;;6.70;99.90;;;;;;4803591;29;20038;-86
2022/11/28 01:33:59;;;;;;;8.05;5.88;;;6.80;99.90;;;;;;4825076;29;20038;-86
2022/11/28 01:36:40;;;;;;;9.73;6.22;;;6.80;99.90;;;;;;4823981;29;20085;-86
2022/11/28 01:39:06;;;;;;;9.55;6.03;;;6.80;99.90;;;;;;4822381;29;20125;-86
2022/11/28 01:41:34;;;;;;;9.00;6.50;;;6.90;99.90;;;;;;4816719;29;20042;-86
2022/11/28 01:44:16;;;;;;;11.48;6.90;;;6.90;99.90;;;;;;4825821;29;20038;-86
2022/11/28 01:46:42;;;;;;;10.85;7.65;;;6.80;99.90;;;;;;4812846;29;20061;-86
2022/11/28 01:49:34;;;;;;;8.23;6.68;;;6.80;99.90;;;;;;4826304;29;20129;-86
2022/11/28 01:52:03;;;;;;;7.85;7.05;;;6.80;99.90;;;;;;4822945;29;20045;-84
2022/11/28 01:54:30;;;;;;;10.10;7.75;;;6.80;99.90;;;;;;4841681;29;20105;-84
2022/11/28 01:57:18;;;;;;;8.55;7.47;;;6.80;99.90;;;;;;4824549;29;20511;-84
2022/11/28 01:59:52;;;;;;;10.70;8.30;;;6.80;99.90;;;;;;4825321;29;20391;-84
2022/11/28 02:02:28;;;;;;;10.55;8.05;;;6.80;99.90;;;;;;4823038;29;20041;-84
2022/11/28 02:04:53;;;;;;;10.05;7.60;;;6.80;99.90;;;;;;4802294;29;20050;-84
2022/11/28 02:07:19;;;;;;;9.23;7.78;;;6.80;99.90;;;;;;4823503;29;20050;-84
2022/11/28 02:09:44;;;;;;;11.85;8.23;;;6.80;99.90;;;;;;4823427;29;20048;-84
2022/11/28 02:12:30;;;;;;;14.95;8.35;;;6.80;99.90;;;;;;4822160;29;20122;-84
2022/11/28 02:15:21;;;;;;;10.73;7.90;;;6.80;99.90;;;;;;4826607;29;20038;-84
2022/11/28 02:18:18;;;;;;;10.15;8.40;;;6.80;99.90;;;;;;4823159;29;20311;-85
2022/11/28 02:21:23;;;;;;;10.88;7.63;;;6.80;99.90;;;;;;4825028;29;20037;-84
2022/11/28 02:24:10;;;;;;;10.57;7.22;;;6.80;99.90;;;;;;4821588;29;20046;-84
2022/11/28 02:26:57;;;;;;;8.95;6.97;;;6.80;99.90;;;;;;4821663;29;20524;-83
2022/11/28 02:29:28;;;;;;;10.70;7.20;;;6.80;99.90;;;;;;4820951;29;20045;-84
2022/11/28 02:32:18;;;;;;;8.32;7.25;;;6.90;99.90;;;;;;4819668;29;20046;-84
2022/11/28 02:34:50;;;;;;;12.00;7.28;;;6.80;99.90;;;;;;4819566;29;20050;-84
2022/11/28 02:37:54;;;;;;;9.30;6.88;;;6.90;99.90;;;;;;4820832;29;20062;-84
2022/11/28 02:40:48;;;;;;;12.55;7.40;;;6.90;99.90;;;;;;4825059;29;20148;-84
2022/11/28 02:43:34;;;;;;;9.48;7.75;;;7.00;99.90;;;;;;4839672;29;20038;-84
2022/11/28 02:46:26;;;;;;;9.55;8.07;;;7.00;99.90;;;;;;4808346;29;20042;-84
2022/11/28 02:49:04;;;;;;;13.82;8.70;;;7.00;99.90;;;;;;4820854;29;20191;-84
2022/11/28 02:51:54;;;;;;;12.27;9.20;;;6.90;99.90;;;;;;4823825;29;20042;-84
2022/11/28 02:54:22;;;;;;;12.60;8.45;;;7.00;99.90;;;;;;4822821;29;20056;-84
2022/11/28 02:56:57;;;;;;;11.93;8.60;;;7.00;99.90;;;;;;4822292;29;20065;-86
2022/11/28 02:59:54;;;;;;;11.10;9.20;;;7.00;99.90;;;;;;4824331;29;20049;-86
2022/11/28 03:02:31;;;;;;;12.75;8.77;;;7.00;99.90;;;;;;4819515;29;20121;-86
2022/11/28 03:05:17;;;;;;;13.15;9.48;;;7.10;99.90;;;;;;4834689;29;20054;-85
2022/11/28 03:08:08;;;;;;;13.98;9.88;;;7.00;99.90;;;;;;4819121;29;20130;-86
2022/11/28 03:10:40;;;;;;;16.60;10.55;;;7.10;99.90;;;;;;4808646;29;20089;-86
2022/11/28 03:13:21;;;;;;;13.82;10.93;;;7.00;99.90;;;;;;4819609;29;20046;-86
2022/11/28 03:16:19;;;;;;;17.98;12.55;;;7.10;99.90;;;;;;4837349;29;20073;-86
2022/11/28 03:18:57;;;;;;;13.18;11.30;;;7.10;99.90;;;;;;4835567;29;20052;-86
2022/11/28 03:21:48;;;;;;;13.45;12.00;;;7.10;99.90;;;;;;4823760;29;20049;-85
2022/11/28 03:24:42;;;;;;;21.40;12.90;;;7.10;99.90;;;;;;4819204;29;20695;-86
2022/11/28 03:27:40;;;;;;;15.77;12.77;;;7.20;99.90;;;;;;4821920;29;20038;-86
2022/11/28 03:30:30;;;;;;;20.13;14.45;;;7.20;99.90;;;;;;4805271;29;20046;-85
2022/11/28 03:32:59;;;;;;;19.38;14.05;;;7.40;99.90;;;;;;4822090;29;20038;-86
2022/11/28 03:35:46;;;;;;;19.10;14.48;;;7.10;99.90;;;;;;4819265;29;20590;-86
2022/11/28 03:38:23;;;;;;;18.67;14.35;;;7.20;99.90;;;;;;4835676;29;20053;-86
2022/11/28 03:40:57;;;;;;;18.02;15.00;;;7.20;99.90;;;;;;4832232;29;20803;-86
2022/11/28 03:43:33;;;;;;;15.27;13.52;;;7.20;99.90;;;;;;4822120;29;20037;-86
2022/11/28 03:46:14;;;;;;;17.52;14.38;;;7.20;99.90;;;;;;4821152;29;20123;-85
2022/11/28 03:48:45;;;;;;;18.92;15.48;;;7.30;99.90;;;;;;4820629;29;20057;-86
2022/11/28 03:51:38;;;;;;;18.05;14.63;;;7.30;99.90;;;;;;4822099;29;20073;-86
2022/11/28 03:54:42;;;;;;;18.95;14.98;;;7.20;99.90;;;;;;4807768;29;20047;-86
2022/11/28 03:57:28;;;;;;;19.65;15.25;;;7.30;99.90;;;;;;4822436;29;20042;-86
2022/11/28 03:59:57;;;;;;;19.20;15.32;;;7.20;99.90;;;;;;4820553;29;20128;-86
2022/11/28 04:02:38;;;;;;;17.83;15.85;;;7.30;99.90;;;;;;4821905;29;20120;-86
2022/11/28 04:05:16;;;;;;;20.02;15.27;;;7.30;99.90;;;;;;4822290;29;20439;-86
2022/11/28 04:08:21;;;;;;;19.73;16.30;;;7.30;99.90;;;;;;4804335;29;20124;-86
2022/11/28 04:10:59;;;;;;;25.15;17.55;;;7.30;99.90;;;;;;4835869;29;20040;-87
2022/11/28 04:13:40;;;;;;;24.77;18.58;;;7.30;99.90;;;;;;4818355;29;20053;-86
2022/11/28 04:16:44;;;;;;;23.38;17.52;;;7.30;99.90;;;;;;4818513;29;20092;-86
2022/11/28 04:19:31;;;;;;;23.27;16.73;;;7.30;99.90;;;;;;4819727;29;20538;-86
2022/11/28 04:22:26;;;;;;;21.75;17.15;;;7.30;99.90;;;;;;4823022;29;20069;-86
2022/11/28 04:25:04;;;;;;;22.52;18.27;;;7.30;99.90;;;;;;4822016;29;20138;-85
2022/11/28 04:28:20;;;;;;;22.20;18.88;;;7.30;99.90;;;;;;4822763;29;20057;-86
2022/11/28 04:30:49;;;;;;;22.42;18.45;;;7.40;99.90;;;;;;4770723;29;20437;-85
2022/11/28 04:33:18;;;;;;;27.25;19.70;;;7.40;99.90;;;;;;4802270;29;20119;-85
2022/11/28 04:35:54;;;;;;;27.13;18.92;;;7.40;99.90;;;;;;4806786;29;20090;-86
2022/11/28 04:38:25;;;;;;;23.20;19.63;;;7.50;99.90;;;;;;4837382;29;20093;-85
2022/11/28 04:40:53;;;;;;;20.88;18.67;;;8.40;99.90;;;;;;4819236;29;20046;-86
2022/11/28 04:43:42;;;;;;;25.20;18.98;;;7.40;99.90;;;;;;4822324;29;20037;-86
2022/11/28 04:46:34;;;;;;;24.63;20.17;;;7.50;99.90;;;;;;4820113;29;20038;-86
2022/11/28 04:49:00;;;;;;;23.58;18.40;;;7.50;99.90;;;;;;4836976;29;20049;-86
2022/11/28 04:51:37;;;;;;;23.13;19.02;;;7.40;99.90;;;;;;4822962;29;20397;-86
2022/11/28 04:54:18;;;;;;;;;;;7.50;99.90;;;;;;4842045;29;20038;-86
2022/11/28 04:56:53;;;;;;;21.38;18.70;;;7.50;99.90;;;;;;4838613;29;19920;-85
2022/11/28 04:59:21;;;;;;;18.27;16.48;;;7.50;99.90;;;;;;4813007;29;20053;-86
2022/11/28 05:01:48;;;;;;;20.35;18.13;;;8.50;99.90;;;;;;4838658;29;20493;-86
2022/11/28 05:04:16;;;;;;;22.85;19.17;;;7.60;99.90;;;;;;4825570;29;20053;-86
2022/11/28 05:06:41;;;;;;;21.35;18.83;;;7.50;99.90;;;;;;4825807;29;20034;-86
2022/11/28 05:09:17;;;;;;;22.80;18.95;;;7.50;99.90;;;;;;4805485;29;20222;-86
2022/11/28 05:11:51;;;;;;;21.73;17.67;;;7.60;99.90;;;;;;4825868;29;20076;-86
2022/11/28 05:14:17;;;;;;;19.65;17.65;;;7.50;99.90;;;;;;4810838;29;20125;-86
2022/11/28 05:16:43;;;;;;;20.73;18.48;;;7.60;99.90;;;;;;4822495;29;20121;-85
2022/11/28 05:19:19;;;;;;;22.02;18.63;;;7.50;99.90;;;;;;4826042;29;20153;-85
2022/11/28 05:21:57;;;;;;;;;;;7.60;99.90;;;;;;4810909;29;20581;-87
2022/11/28 05:25:21;;;;;;;18.92;16.80;;;7.60;99.90;;;;;;4820705;29;19920;-88
2022/11/28 05:28:43;;;;;;;19.75;17.48;;;7.60;99.90;;;;;;4805809;29;20042;-87
2022/11/28 05:32:22;;;;;;;20.05;17.02;;;7.60;99.90;;;;;;4784927;30;20084;-89
2022/11/28 05:38:04;;;;;;;19.67;15.55;;;7.60;99.90;;;;;;4766187;30;20587;-88
2022/11/28 05:40:42;;;;;;;15.40;13.88;;;7.90;99.90;;;;;;4747329;30;20130;-87
2022/11/28 05:43:21;;;;;;;20.95;16.77;;;7.80;99.90;;;;;;4753330;29;20684;-88
2022/11/28 05:45:53;;;;;;;19.00;15.95;;;7.70;99.90;;;;;;4811608;29;20103;-87
2022/11/28 05:48:40;;;;;;;15.68;14.07;;;7.70;99.90;;;;;;4828539;29;20045;-88
2022/11/28 05:51:10;;;;;;;17.48;14.98;;;7.70;99.90;;;;;;4828449;29;20046;-85
2022/11/28 05:53:36;;;;;;;16.88;15.05;;;7.80;99.90;;;;;;4826877;29;20056;-86
2022/11/28 05:56:22;;;;;;;22.98;16.33;;;7.80;99.90;;;;;;4826889;29;20222;-87
2022/11/28 05:58:48;;;;;;;18.17;14.10;;;7.70;99.90;;;;;;4807526;29;20085;-86
2022/11/28 06:01:41;;;;;;;16.52;14.63;;;7.80;99.90;;;;;;4813827;29;20073;-90
2022/11/28 06:04:08;;;;;;;18.75;16.58;;;7.80;99.90;;;;;;4823056;29;20038;-87
2022/11/28 06:06:56;;;;;;;17.38;15.02;;;7.80;99.90;;;;;;4808628;29;20106;-87
2022/11/28 06:10:22;;;;;;;16.58;14.88;;;7.70;99.90;;;;;;4801197;29;20108;-88
2022/11/28 06:16:54;;;;;;;20.77;16.30;;;7.80;99.90;;;;;;4799473;29;20050;-86
2022/11/28 06:22:20;;;;;;;17.83;15.63;;;7.80;99.90;;;;;;4789700;29;20050;-86
2022/11/28 06:25:33;;;;;;;17.88;16.08;;;7.80;99.90;;;;;;4784433;29;20042;-88
2022/11/28 06:27:58;;;;;;;18.10;15.82;;;7.80;99.90;;;;;;4825242;29;20064;-84
2022/11/28 06:30:24;;;;;;;18.73;15.82;;;7.80;99.90;;;;;;4825188;29;20409;-87
2022/11/28 06:32:54;;;;;;;22.08;15.18;;;7.80;99.90;;;;;;4826882;29;20048;-86
2022/11/28 06:35:32;;;;;;;19.00;17.02;;;7.80;99.90;;;;;;4812304;29;20376;-86
2022/11/28 06:37:58;;;;;;;17.85;15.23;;;7.80;99.90;;;;;;4840391;29;20041;-86
2022/11/28 06:40:23;;;;;;;19.52;15.05;;;8.20;99.90;;;;;;4805095;29;20554;-84
2022/11/28 06:42:49;;;;;;;19.73;16.27;;;7.90;99.90;;;;;;4825179;29;20037;-88
2022/11/28 06:45:15;;;;;;;17.92;15.57;;;7.80;99.90;;;;;;4804284;29;20042;-85
2022/11/28 06:47:51;;;;;;;19.38;16.10;;;7.80;99.90;;;;;;4811225;29;20087;-89
2022/11/28 06:50:17;;;;;;;22.45;16.70;;;7.80;99.90;;;;;;4817141;29;20049;-88
2022/11/28 06:52:43;;;;;;;18.65;16.75;;;7.80;99.90;;;;;;4827203;29;20041;-89
2022/11/28 06:55:08;;;;;;;17.65;15.80;;;7.80;99.90;;;;;;4811060;29;20103;-88
2022/11/28 06:57:34;;;;;;;22.13;16.70;;;7.80;99.90;;;;;;4827642;29;20418;-89
2022/11/28 07:00:00;;;;;;;23.33;17.05;;;7.80;99.90;;;;;;4826012;29;20129;-88
2022/11/28 07:02:26;;;;;;;18.55;16.73;;;7.80;99.90;;;;;;4826531;29;20071;-89
2022/11/28 07:04:52;;;;;;;19.23;16.05;;;7.80;99.90;;;;;;4827208;29;20124;-89
2022/11/28 07:07:17;;;;;;;17.48;15.48;;;7.80;99.90;;;;;;4803412;29;20139;-88
2022/11/28 07:09:43;;;;;;;19.20;16.85;;;8.00;99.90;;;;;;4826234;29;20072;-88
2022/11/28 07:12:18;;;;;;;15.75;14.05;;;8.30;99.90;;;;;;4826542;29;20041;-88
2022/11/28 07:14:44;;;;;;;19.08;15.02;;;8.20;99.90;;;;;;4823973;29;20054;-88
2022/11/28 07:17:12;;;;;;;19.63;15.18;;;8.60;99.90;;;;;;4809856;29;20050;-88
2022/11/28 07:19:38;;;;;;;17.42;15.35;;;7.80;99.90;;;;;;4809509;29;20053;-88
2022/11/28 07:22:04;;;;;;;15.43;13.45;;;7.80;99.90;;;;;;4823732;29;20031;-88
2022/11/28 07:24:29;;;;;;;19.45;14.95;;;7.80;99.90;;;;;;4840178;29;20042;-88
2022/11/28 07:26:58;;;;;;;18.75;14.85;;;7.80;99.90;;;;;;4826511;29;20121;-89
2022/11/28 07:29:23;;;;;;;18.98;14.43;;;8.80;99.90;;;;;;4806481;29;20125;-89
2022/11/28 07:31:49;;;;;;;16.63;14.57;;;7.80;99.90;;;;;;4825947;29;20045;-89
2022/11/28 07:34:15;;;;;;;18.20;14.48;;;7.90;99.90;;;;;;4826729;29;20050;-89
2022/11/28 07:36:41;;;;;;;14.20;12.75;;;7.80;99.90;;;;;;4808021;29;20048;-89
2022/11/28 07:39:10;;;;;;;15.63;13.98;;;7.90;99.90;;;;;;4825919;29;20080;-89
2022/11/28 07:41:36;;;;;;;16.23;12.82;;;7.90;99.90;;;;;;4808360;29;20034;-89
2022/11/28 07:44:03;;;;;;;14.85;13.10;;;7.90;99.90;;;;;;4820890;29;20049;-89
2022/11/28 07:46:32;;;;;;;19.92;13.55;;;7.80;99.90;;;;;;4824099;29;20042;-89
2022/11/28 07:48:59;;;;;;;15.85;12.85;;;8.00;99.90;;;;;;4826107;29;20046;-89
2022/11/28 07:51:32;;;;;;;14.88;13.27;;;7.90;99.90;;;;;;4825374;29;20053;-88
2022/11/28 07:53:59;;;;;;;13.45;12.05;;;7.80;99.90;;;;;;4825813;29;20053;-89
2022/11/28 07:56:29;;;;;;;15.27;13.13;;;8.30;99.90;;;;;;4809219;29;20048;-89
2022/11/28 07:58:54;;;;;;;14.73;13.07;;;7.80;99.90;;;;;;4825621;29;20049;-89
2022/11/28 08:01:22;;;;;;;13.55;12.15;;;7.90;99.90;;;;;;4825330;29;20034;-89
2022/11/28 08:03:48;;;;;;;13.65;11.95;;;7.90;99.90;;;;;;4809699;29;20094;-88
2022/11/28 08:06:16;;;;;;;15.32;12.18;;;7.90;99.90;;;;;;4810510;29;20175;-88
2022/11/28 08:08:46;;;;;;;13.43;12.13;;;7.90;99.90;;;;;;4822263;29;20588;-87
2022/11/28 08:11:13;;;;;;;13.27;11.02;;;7.90;99.90;;;;;;4811312;29;20501;-88
2022/11/28 08:13:39;;;;;;;12.23;10.32;;;7.80;99.90;;;;;;4841148;29;20459;-87
2022/11/28 08:16:32;;;;;;;12.75;10.18;;;7.90;99.90;;;;;;4808821;29;20496;-88
2022/11/28 08:19:14;;;;;;;10.25;9.35;;;7.90;99.90;;;;;;4801344;29;20042;-88
2022/11/28 08:22:26;;;;;;;9.75;8.65;;;7.90;99.90;;;;;;4826319;29;20136;-89
2022/11/28 08:24:58;;;;;;;12.40;9.20;;;7.90;99.90;;;;;;4824170;29;20521;-86
2022/11/28 08:27:26;;;;;;;10.50;9.43;;;7.90;99.90;;;;;;4822399;29;20128;-86
2022/11/28 08:29:55;;;;;;;12.57;9.70;;;8.00;99.90;;;;;;4823675;29;20108;-88
2022/11/28 08:32:20;;;;;;;11.60;9.38;;;7.90;99.90;;;;;;4822554;29;20046;-87
2022/11/28 08:34:46;;;;;;;11.63;10.52;;;7.90;99.90;;;;;;4810906;29;20042;-87
2022/11/28 08:37:52;;;;;;;12.20;9.13;;;7.90;99.90;;;;;;4801024;29;20057;-87
2022/11/28 08:40:30;;;;;;;11.02;9.93;;;7.90;99.90;;;;;;4822854;29;20050;-86
2022/11/28 08:42:57;;;;;;;10.18;9.25;;;7.90;99.90;;;;;;4823782;29;20041;-85
2022/11/28 08:45:31;;;;;;;11.88;10.70;;;7.90;99.90;;;;;;4822990;29;20038;-86
2022/11/28 08:51:01;;;;;;;12.15;10.10;;;7.90;99.90;;;;;;4839965;29;20057;-86
2022/11/28 08:53:26;;;;;;;11.95;10.73;;;7.90;99.90;;;;;;4821084;29;20037;-85
2022/11/28 08:55:52;;;;;;;10.48;8.80;;;8.00;99.90;;;;;;4818603;29;20046;-85
2022/11/28 08:58:17;;;;;;;13.60;12.20;;;7.90;99.90;;;;;;4795458;29;20038;-88
2022/11/28 09:00:54;;;;;;;12.00;10.73;;;8.00;99.90;;;;;;4824088;29;20050;-90
2022/11/28 09:03:20;;;;;;;12.93;11.35;;;8.00;99.90;;;;;;4810007;29;20478;-88
2022/11/28 09:05:46;;;;;;;11.55;9.95;;;8.00;99.90;;;;;;4801776;29;20038;-86
2022/11/28 09:08:14;;;;;;;8.57;7.78;;;8.00;99.90;;;;;;4811957;29;20041;-86
2022/11/28 09:10:42;;;;;;;8.63;7.85;;;8.00;99.90;;;;;;4816120;29;20077;-85
2022/11/28 09:13:08;;;;;;;8.52;7.72;;;7.80;99.90;;;;;;4807226;29;20046;-86
2022/11/28 09:15:38;;;;;;;12.07;8.85;;;7.90;99.90;;;;;;4824651;29;20101;-86
2022/11/28 09:18:03;;;;;;;9.73;8.80;;;8.00;99.90;;;;;;4792036;29;20062;-86
2022/11/28 09:20:29;;;;;;;9.18;8.35;;;8.00;99.90;;;;;;4811674;29;20042;-86
2022/11/28 09:22:54;;;;;;;9.90;8.90;;;8.00;99.90;;;;;;4797205;29;20051;-86
2022/11/28 09:25:20;;;;;;;9.02;8.23;;;8.00;99.90;;;;;;4812247;29;20068;-86
2022/11/28 09:27:45;;;;;;;9.60;8.70;;;8.10;99.90;;;;;;4807407;29;20045;-86
2022/11/28 09:30:11;;;;;;;9.63;8.73;;;8.10;99.90;;;;;;4822294;29;20060;-86
2022/11/28 09:32:37;;;;;;;8.98;8.07;;;8.10;99.90;;;;;;4793507;29;20046;-86
2022/11/28 09:35:03;;;;;;;9.77;8.98;;;8.10;99.90;;;;;;4806755;29;20419;-85
2022/11/28 09:37:28;;;;;;;8.18;7.43;;;8.10;99.90;;;;;;4805406;29;20053;-86
2022/11/28 09:39:54;;;;;;;10.55;7.95;;;8.10;99.90;;;;;;4810081;29;20609;-86
2022/11/28 09:42:29;;;;;;;11.05;8.25;;;8.10;99.90;;;;;;4803336;29;20046;-85
2022/11/28 09:45:00;;;;;;;8.25;7.45;;;8.20;99.90;;;;;;4811849;29;20107;-86
2022/11/28 09:47:29;;;;;;;8.88;8.05;;;8.20;99.90;;;;;;4807617;29;20042;-85
2022/11/28 09:50:19;;;;;;;9.10;8.30;;;8.10;99.90;;;;;;4811493;29;20133;-85
2022/11/28 09:53:00;;;;;;;10.00;9.10;;;8.20;99.90;;;;;;4811860;29;20049;-86
2022/11/28 09:55:46;;;;;;;9.65;8.75;;;8.20;99.90;;;;;;4797693;29;20129;-85
2022/11/28 09:58:27;;;;;;;8.32;7.63;;;8.20;99.90;;;;;;4829408;29;20053;-86
2022/11/28 10:01:03;;;;;;;9.75;8.75;;;8.20;99.90;;;;;;4819360;29;20096;-86
2022/11/28 10:03:36;;;;;;;9.63;8.70;;;8.20;99.90;;;;;;4814810;29;20042;-85
2022/11/28 10:06:13;;;;;;;9.02;8.13;;;8.30;99.90;;;;;;4812468;29;21893;-86
2022/11/28 10:09:20;;;;;;;9.93;8.95;;;8.20;99.90;;;;;;4812185;29;20065;-86
2022/11/28 10:12:10;;;;;;;9.10;8.20;;;8.20;99.90;;;;;;4778907;29;20085;-86
2022/11/28 10:15:27;;;;;;;10.13;9.13;;;8.20;99.90;;;;;;4794071;29;20176;-82
2022/11/28 10:18:26;;;;;;;9.25;8.35;;;8.30;99.90;;;;;;4819944;29;20118;-82
2022/11/28 10:20:58;;;;;;;9.98;8.98;;;8.20;99.90;;;;;;4797571;29;20060;-81
2022/11/28 10:23:35;;;;;;;8.80;7.90;;;8.30;99.90;;;;;;4803194;29;20510;-82
2022/11/28 10:26:27;;;;;;;9.48;8.50;;;8.30;99.90;;;;;;4828961;29;20137;-82
2022/11/28 10:28:56;;;;;;;9.23;8.18;;;8.30;99.90;;;;;;4828245;29;20049;-82
2022/11/28 10:31:33;;;;;;;8.85;7.97;;;8.40;99.90;;;;;;4812288;29;20073;-82
2022/11/28 10:34:23;;;;;;;8.88;8.07;;;8.40;99.90;;;;;;4823594;29;20042;-82
2022/11/28 10:37:13;;;;;;;9.05;8.15;;;8.40;99.90;;;;;;4802923;29;20529;-81
2022/11/28 10:39:43;;;;;;;8.20;7.40;;;8.50;99.90;;;;;;4816417;29;20050;-83
2022/11/28 10:42:19;;;;;;;10.43;8.15;;;8.50;99.90;;;;;;4829995;29;20052;-82
2022/11/28 10:45:24;;;;;;;8.95;7.20;;;8.50;99.90;;;;;;4833111;29;20194;-81
2022/11/28 10:48:17;;;;;;;8.50;7.70;;;8.50;99.90;;;;;;4814157;29;20073;-81
2022/11/28 10:51:17;;;;;;;8.32;7.63;;;8.50;99.90;;;;;;4812356;29;20409;-81
2022/11/28 10:54:09;;;;;;;8.85;7.95;;;8.60;99.90;;;;;;4811510;29;20053;-82
2022/11/28 10:56:56;;;;;;;7.93;7.22;;;8.60;99.90;;;;;;4817278;29;20145;-82
2022/11/28 10:59:36;;;;;;;7.85;7.05;;;8.60;99.90;;;;;;4819550;29;20077;-81
2022/11/28 11:02:30;;;;;;;8.38;7.57;;;8.60;99.90;;;;;;4804835;29;20042;-81
2022/11/28 11:04:56;;;;;;;8.23;7.43;;;8.60;99.90;;;;;;4823386;29;20050;-81
2022/11/28 11:07:27;;;;;;;7.20;6.60;;;8.60;99.90;;;;;;4822803;29;20050;-82
2022/11/28 11:09:52;;;;;;;8.70;7.82;;;8.60;99.90;;;;;;4820103;29;20046;-81
2022/11/28 11:12:24;;;;;;;7.88;7.05;;;8.60;99.90;;;;;;4805031;29;20068;-83
2022/11/28 11:14:50;;;;;;;8.18;7.32;;;8.70;99.90;;;;;;4840779;29;20076;-80
2022/11/28 11:17:26;;;;;;;8.20;7.43;;;8.70;99.90;;;;;;4805556;29;20069;-80
2022/11/28 11:19:52;;;;;;;9.15;7.80;;;8.70;99.90;;;;;;4821726;29;20038;-81
2022/11/28 11:22:25;;;;;;;8.02;7.32;;;8.70;99.90;;;;;;4823686;29;20048;-79
2022/11/28 11:25:21;;;;;;;8.88;8.07;;;8.70;99.90;;;;;;4839892;29;20045;-81
2022/11/28 11:27:56;;;;;;;9.07;8.23;;;8.70;99.90;;;;;;4800481;29;20494;-81
2022/11/28 11:30:37;;;;;;;8.90;8.10;;;8.70;99.90;;;;;;4823457;29;20111;-81
2022/11/28 11:33:05;;;;;;;9.60;7.35;;;8.70;99.90;;;;;;4826764;29;20598;-82
2022/11/28 11:35:41;;;;;;;8.20;7.53;;;8.80;99.90;;;;;;4829057;29;20041;-81
2022/11/28 11:38:27;;;;;;;8.02;7.15;;;8.70;99.90;;;;;;4821379;29;20124;-81
2022/11/28 11:40:53;;;;;;;8.38;7.57;;;8.80;99.90;;;;;;4839824;29;20425;-82
2022/11/28 11:43:31;;;;;;;7.60;6.90;;;8.80;99.90;;;;;;4824971;29;20056;-81
2022/11/28 11:46:10;;;;;;;9.40;8.57;;;8.80;99.90;;;;;;4825776;29;20041;-81
2022/11/28 11:48:51;;;;;;;8.70;7.90;;;8.70;99.90;;;;;;4828643;29;20045;-81
2022/11/28 11:51:28;;;;;;;8.35;7.55;;;8.80;99.90;;;;;;4823007;29;20053;-81
2022/11/28 11:54:12;;;;;;;7.20;6.60;;;8.80;99.90;;;;;;4823854;29;20433;-81
2022/11/28 11:56:43;;;;;;;8.23;7.18;;;8.80;99.90;;;;;;4820403;29;20046;-82
2022/11/28 11:59:39;;;;;;;7.35;6.75;;;8.90;99.90;;;;;;4824056;29;20050;-82
2022/11/28 12:02:21;;;;;;;6.97;6.38;;;8.80;99.90;;;;;;4807602;29;20699;-81
2022/11/28 12:04:52;;;;;;;7.20;6.50;;;8.80;99.90;;;;;;4823432;29;20160;-81
2022/11/28 12:07:32;;;;;;;6.88;6.22;;;8.90;99.90;;;;;;4802280;29;20508;-82
2022/11/28 12:09:58;;;;;;;7.18;6.50;;;8.90;99.90;;;;;;4825903;29;20072;-81
2022/11/28 12:12:31;;;;;;;7.55;6.88;;;8.90;99.90;;;;;;4822581;29;20041;-82
2022/11/28 12:14:56;;;;;;;6.28;5.72;;;8.90;99.90;;;;;;4836101;29;20498;-81
2022/11/28 12:17:31;;;;;;;6.32;5.72;;;8.90;99.90;;;;;;4822374;29;20050;-81
2022/11/28 12:20:21;;;;;;;6.47;5.88;;;8.80;99.90;;;;;;4820848;29;20067;-81
2022/11/28 12:23:01;;;;;;;7.05;6.45;;;8.90;99.90;;;;;;4816656;29;20128;-81
2022/11/28 12:25:50;;;;;;;6.57;5.82;;;8.90;99.90;;;;;;4808620;29;20124;-81
2022/11/28 12:28:48;;;;;;;6.07;5.57;;;8.90;99.90;;;;;;4837177;29;20052;-81
2022/11/28 12:31:29;;;;;;;6.18;5.63;;;9.00;99.90;;;;;;4807194;29;20042;-82
2022/11/28 12:34:23;;;;;;;6.07;5.47;;;8.90;99.90;;;;;;4822532;29;20179;-81
2022/11/28 12:37:12;;;;;;;5.75;4.95;;;8.90;99.90;;;;;;4823139;29;20034;-81
2022/11/28 12:39:53;;;;;;;6.20;5.70;;;9.00;99.90;;;;;;4808327;29;20179;-81
2022/11/28 12:42:44;;;;;;;5.78;5.28;;;9.00;99.90;;;;;;4802503;29;20149;-81
2022/11/28 12:45:29;;;;;;;7.95;5.65;;;8.90;99.90;;;;;;4810477;29;20054;-81
2022/11/28 12:48:10;;;;;;;5.78;5.28;;;9.00;99.90;;;;;;4841321;29;20045;-81
2022/11/28 12:50:42;;;;;;;7.32;5.70;;;9.00;99.90;;;;;;4825853;29;20049;-80
2022/11/28 12:53:27;;;;;;;7.40;6.18;;;8.90;99.90;;;;;;4827053;29;20045;-82
2022/11/28 12:56:01;;;;;;;7.13;6.47;;;9.00;99.90;;;;;;4821770;29;20073;-82
2022/11/28 12:58:37;;;;;;;6.97;6.32;;;9.00;99.90;;;;;;4822000;29;20038;-82
2022/11/28 13:01:35;;;;;;;7.03;6.40;;;9.00;99.90;;;;;;4822838;29;20060;-82
2022/11/28 13:04:10;;;;;;;7.20;6.60;;;9.00;99.90;;;;;;4821108;29;20037;-82
2022/11/28 13:06:53;;;;;;;7.68;6.97;;;9.00;99.90;;;;;;4820991;29;20125;-82
2022/11/28 13:09:36;;;;;;;7.85;7.15;;;9.00;99.90;;;;;;4809050;29;20793;-84
2022/11/28 13:12:21;;;;;;;7.55;6.85;;;9.00;99.90;;;;;;4824572;29;20042;-86
2022/11/28 13:14:53;;;;;;;7.35;6.65;;;9.00;99.90;;;;;;4824704;29;20056;-84
2022/11/28 13:17:46;;;;;;;7.72;7.03;;;9.10;99.90;;;;;;4806262;29;20053;-84
2022/11/28 13:20:34;;;;;;;7.22;6.53;;;9.10;99.90;;;;;;4841761;29;20052;-84
2022/11/28 13:23:27;;;;;;;7.43;6.72;;;9.10;99.90;;;;;;4837342;29;20493;-83
2022/11/28 13:26:16;;;;;;;8.18;5.80;;;9.00;99.90;;;;;;4814675;29;20484;-84
2022/11/28 13:29:26;;;;;;;7.55;6.80;;;9.10;99.90;;;;;;4823905;29;20053;-84
2022/11/28 13:32:03;;;;;;;7.05;6.38;;;10.30;99.90;;;;;;4832487;29;20042;-84
2022/11/28 13:34:29;;;;;;;8.52;6.80;;;9.10;99.90;;;;;;4820925;29;20078;-84
2022/11/28 13:37:10;;;;;;;8.77;7.88;;;9.00;99.90;;;;;;4829962;29;20111;-86
2022/11/28 13:39:49;;;;;;;7.57;6.88;;;9.00;99.90;;;;;;4811106;29;20042;-85
2022/11/28 13:42:33;;;;;;;6.70;6.07;;;9.10;99.90;;;;;;4814705;29;20050;-85
2022/11/28 13:45:18;;;;;;;8.02;7.30;;;9.00;99.90;;;;;;4827581;29;20107;-85
2022/11/28 13:47:44;;;;;;;7.25;6.60;;;9.00;99.90;;;;;;4830190;29;20086;-88
2022/11/28 13:50:21;;;;;;;7.55;6.95;;;9.00;99.90;;;;;;4814042;29;20486;-85
2022/11/28 13:53:19;;;;;;;8.52;7.63;;;9.00;99.90;;;;;;4827777;29;20506;-85